Time;durP1;ratioP1;P1;durP2;ratioP2;P2;SDS_P1;SDS_P2;PMS_P1;PMS_P2;Temp;Humidity;BMP_temperature;BMP_pressure;BME280_temperature;BME280_humidity;BME280_pressure;Samples;Min_cycle;Max_cycle;Signal;HPM_P1;HPM_P2
2023/08/13 00:00:00;;;;;;;6.50;3.47;;;18.90;99.90;;;;;;6291492;22;20298;-86
2023/08/13 00:02:36;;;;;;;7.50;3.37;;;18.90;99.90;;;;;;6291571;22;20270;-85
2023/08/13 00:05:04;;;;;;;7.57;3.90;;;18.80;99.90;;;;;;6345436;22;20400;-84
2023/08/13 00:07:32;;;;;;;6.33;3.80;;;18.80;99.90;;;;;;6218542;23;20678;-85
2023/08/13 00:09:59;;;;;;;7.17;3.73;;;18.70;99.90;;;;;;6193223;23;20167;-86
2023/08/13 00:12:27;;;;;;;6.70;3.90;;;18.60;99.90;;;;;;6193245;23;20187;-85
2023/08/13 00:14:54;;;;;;;6.73;4.37;;;18.60;99.90;;;;;;6168584;23;20164;-87
2023/08/13 00:17:21;;;;;;;7.50;4.50;;;18.60;99.90;;;;;;6217781;23;20546;-86
2023/08/13 00:19:48;;;;;;;9.87;4.90;;;18.50;99.90;;;;;;6193398;23;20608;-85
2023/08/13 00:22:16;;;;;;;9.20;5.20;;;18.40;99.90;;;;;;6168393;23;20173;-85
2023/08/13 00:24:44;;;;;;;10.77;5.33;;;18.40;99.90;;;;;;6206670;22;20540;-85
2023/08/13 00:27:11;;;;;;;9.50;5.30;;;18.20;99.90;;;;;;6345598;22;20184;-85
2023/08/13 00:29:40;;;;;;;9.53;5.17;;;18.10;99.90;;;;;;6317898;22;20178;-85
2023/08/13 00:32:08;;;;;;;9.37;5.80;;;18.00;99.90;;;;;;6318345;22;20170;-85
2023/08/13 00:34:35;;;;;;;11.37;5.93;;;17.90;99.90;;;;;;6292498;22;20188;-85
2023/08/13 00:37:03;;;;;;;10.13;5.40;;;17.80;99.90;;;;;;6344810;22;20183;-85
2023/08/13 00:39:30;;;;;;;8.97;5.40;;;17.80;99.90;;;;;;6316947;22;20161;-84
2023/08/13 00:41:58;;;;;;;11.60;5.80;;;17.70;99.90;;;;;;6317783;22;20225;-86
2023/08/13 00:44:27;;;;;;;10.53;5.30;;;17.60;99.90;;;;;;6318602;22;20157;-85
2023/08/13 00:46:55;;;;;;;12.53;5.57;;;17.60;99.90;;;;;;6317573;22;20176;-85
2023/08/13 00:49:23;;;;;;;8.27;5.53;;;17.60;99.90;;;;;;6318899;22;20579;-86
2023/08/13 00:51:51;;;;;;;8.33;5.60;;;17.50;99.90;;;;;;6345314;22;20164;-85
2023/08/13 00:54:19;;;;;;;11.20;5.93;;;17.50;99.90;;;;;;6291457;22;20187;-86
2023/08/13 00:56:47;;;;;;;8.50;5.80;;;17.40;99.90;;;;;;6291207;22;20287;-86
2023/08/13 00:59:14;;;;;;;9.93;5.60;;;17.40;99.90;;;;;;6316539;22;20495;-85
2023/08/13 01:01:42;;;;;;;10.30;6.20;;;17.30;99.90;;;;;;6344629;22;20168;-86
2023/08/13 01:04:09;;;;;;;11.00;6.40;;;17.30;99.90;;;;;;6343683;22;20187;-86
2023/08/13 01:06:49;;;;;;;8.77;5.80;;;17.20;99.90;;;;;;6316692;22;20213;-85
2023/08/13 01:09:30;;;;;;;12.30;6.33;;;17.10;99.90;;;;;;6316531;22;20188;-85
2023/08/13 01:12:08;;;;;;;10.33;5.97;;;17.20;99.90;;;;;;6316455;22;20168;-85
2023/08/13 01:14:43;;;;;;;9.80;6.40;;;17.20;99.90;;;;;;6316462;22;20188;-85
2023/08/13 01:17:12;;;;;;;11.63;6.77;;;17.10;99.90;;;;;;6316904;22;20400;-86
2023/08/13 01:19:39;;;;;;;13.60;6.97;;;17.00;99.90;;;;;;6316608;22;20165;-85
2023/08/13 01:22:07;;;;;;;12.13;7.00;;;17.00;99.90;;;;;;6291321;22;20160;-85
2023/08/13 01:24:34;;;;;;;10.53;7.10;;;17.00;99.90;;;;;;6316416;22;20236;-88
2023/08/13 01:27:17;;;;;;;11.50;7.17;;;16.80;99.90;;;;;;6342736;22;20494;-86
2023/08/13 01:30:01;;;;;;;13.33;7.80;;;16.80;99.90;;;;;;6315215;22;20164;-84
2023/08/13 01:32:36;;;;;;;12.30;7.63;;;16.70;99.90;;;;;;6343507;22;20245;-85
2023/08/13 01:35:06;;;;;;;13.53;7.83;;;16.70;99.90;;;;;;6316885;22;20269;-87
2023/08/13 01:37:34;;;;;;;15.27;8.40;;;16.70;99.90;;;;;;6315419;22;20192;-85
2023/08/13 01:40:03;;;;;;;12.87;7.77;;;16.60;99.90;;;;;;6290779;22;20168;-85
2023/08/13 01:42:33;;;;;;;12.33;7.33;;;16.60;99.90;;;;;;6318077;22;20176;-86
2023/08/13 01:45:01;;;;;;;14.33;7.93;;;16.60;99.90;;;;;;6317021;22;20172;-86
2023/08/13 01:47:28;;;;;;;14.07;8.40;;;16.60;99.90;;;;;;6290787;22;20227;-85
2023/08/13 01:49:56;;;;;;;13.50;7.83;;;16.60;99.90;;;;;;6316141;22;20229;-85
2023/08/13 01:52:23;;;;;;;12.67;8.30;;;16.60;99.90;;;;;;6342744;22;20187;-85
2023/08/13 01:54:50;;;;;;;15.23;8.47;;;16.60;99.90;;;;;;6315772;22;20187;-85
2023/08/13 01:57:18;;;;;;;10.97;7.77;;;16.60;99.90;;;;;;6315672;22;20188;-83
2023/08/13 01:59:45;;;;;;;13.43;8.03;;;16.60;99.90;;;;;;6315183;22;20184;-85
2023/08/13 02:02:12;;;;;;;14.27;8.77;;;16.60;99.90;;;;;;6342802;22;20161;-85
2023/08/13 02:04:40;;;;;;;15.63;7.33;;;16.60;99.90;;;;;;6343075;22;20465;-85
2023/08/13 02:07:07;;;;;;;16.40;7.93;;;16.60;99.90;;;;;;6315692;22;20239;-85
2023/08/13 02:09:34;;;;;;;12.60;8.17;;;16.60;99.90;;;;;;6315537;22;20168;-85
2023/08/13 02:12:01;;;;;;;13.83;8.20;;;16.50;99.90;;;;;;6342676;22;20168;-85
2023/08/13 02:14:29;;;;;;;15.13;8.10;;;16.50;99.90;;;;;;6315878;22;20180;-83
2023/08/13 02:16:57;;;;;;;13.83;8.27;;;16.50;99.90;;;;;;6316792;22;20168;-84
2023/08/13 02:19:24;;;;;;;13.13;8.17;;;16.60;99.90;;;;;;6316084;22;20160;-84
2023/08/13 02:21:52;;;;;;;12.40;7.93;;;16.60;99.90;;;;;;6290336;22;20259;-84
2023/08/13 02:24:19;;;;;;;12.87;7.57;;;16.60;99.90;;;;;;6315779;22;20271;-85
2023/08/13 02:26:46;;;;;;;12.67;8.07;;;16.60;99.90;;;;;;6309977;22;20291;-85
2023/08/13 02:29:17;;;;;;;10.87;7.60;;;16.60;99.90;;;;;;6285612;22;20192;-85
2023/08/13 02:31:44;;;;;;;14.30;7.23;;;16.60;99.90;;;;;;6310803;22;20178;-84
2023/08/13 02:34:11;;;;;;;12.23;7.57;;;16.60;99.90;;;;;;6312718;22;20169;-84
2023/08/13 02:36:38;;;;;;;13.93;7.27;;;16.60;99.90;;;;;;6312010;22;20175;-85
2023/08/13 02:39:06;;;;;;;10.93;6.97;;;16.60;99.90;;;;;;6285195;22;20185;-84
2023/08/13 02:41:33;;;;;;;13.20;7.03;;;16.60;99.90;;;;;;6310618;22;20259;-85
2023/08/13 02:44:00;;;;;;;12.90;7.53;;;16.60;99.90;;;;;;6312295;22;20180;-84
2023/08/13 02:46:27;;;;;;;14.77;6.90;;;16.60;99.90;;;;;;6310291;22;20500;-85
2023/08/13 02:48:55;;;;;;;15.97;7.13;;;16.70;99.90;;;;;;6284034;22;20238;-84
2023/08/13 02:51:25;;;;;;;13.63;6.73;;;16.60;99.90;;;;;;6309991;22;20175;-84
2023/08/13 02:53:53;;;;;;;14.77;7.07;;;16.70;99.90;;;;;;6311163;22;20181;-84
2023/08/13 02:56:20;;;;;;;10.80;6.40;;;16.60;99.90;;;;;;6311125;22;20165;-85
2023/08/13 02:58:48;;;;;;;14.30;6.70;;;16.60;99.90;;;;;;6312212;22;20438;-84
2023/08/13 03:01:15;;;;;;;12.77;6.90;;;16.60;99.90;;;;;;6312025;22;20156;-84
2023/08/13 03:03:42;;;;;;;11.07;6.60;;;16.60;99.90;;;;;;6311683;22;20188;-83
2023/08/13 03:06:24;;;;;;;10.23;6.37;;;16.60;99.90;;;;;;6286686;22;20168;-85
2023/08/13 03:08:52;;;;;;;11.87;7.23;;;16.50;99.90;;;;;;6284471;22;20185;-85
2023/08/13 03:11:19;;;;;;;12.03;7.00;;;16.60;99.90;;;;;;6311768;22;20230;-85
2023/08/13 03:13:47;;;;;;;12.07;7.10;;;16.50;99.90;;;;;;6283756;22;20610;-84
2023/08/13 03:16:16;;;;;;;14.37;7.37;;;16.60;99.90;;;;;;6279022;22;20175;-86
2023/08/13 03:18:43;;;;;;;13.70;7.60;;;16.60;99.90;;;;;;6254610;22;20217;-86
2023/08/13 03:21:10;;;;;;;13.17;7.30;;;16.50;99.90;;;;;;6281569;22;20181;-85
2023/08/13 03:23:37;;;;;;;11.40;7.30;;;16.50;99.90;;;;;;6254459;22;20185;-85
2023/08/13 03:26:05;;;;;;;9.90;7.17;;;16.40;99.90;;;;;;6283057;22;20190;-84
2023/08/13 03:28:32;;;;;;;11.33;7.37;;;16.40;99.90;;;;;;6285259;22;20400;-84
2023/08/13 03:31:00;;;;;;;12.13;7.77;;;16.40;99.90;;;;;;6311613;22;20161;-85
2023/08/13 03:33:28;;;;;;;10.67;7.03;;;16.40;99.90;;;;;;6283711;22;20254;-84
2023/08/13 03:35:55;;;;;;;12.47;7.77;;;16.30;99.90;;;;;;6284322;22;20559;-85
2023/08/13 03:38:22;;;;;;;12.63;7.60;;;16.30;99.90;;;;;;6284343;22;20196;-84
2023/08/13 03:40:53;;;;;;;13.17;7.53;;;16.30;99.90;;;;;;6310079;22;20252;-84
2023/08/13 03:43:21;;;;;;;13.70;7.60;;;16.30;99.90;;;;;;6310440;22;20276;-84
2023/08/13 03:45:48;;;;;;;11.77;7.43;;;16.30;99.90;;;;;;6284122;22;20215;-85
2023/08/13 03:48:15;;;;;;;14.40;7.40;;;16.30;99.90;;;;;;6259875;22;20265;-84
2023/08/13 03:50:43;;;;;;;12.07;7.40;;;16.30;99.90;;;;;;6312360;22;20230;-83
2023/08/13 03:53:11;;;;;;;12.37;7.50;;;16.30;99.90;;;;;;6286945;22;20220;-83
2023/08/13 03:55:38;;;;;;;10.67;6.83;;;16.30;99.90;;;;;;6286874;22;20188;-83
2023/08/13 03:58:07;;;;;;;12.77;7.37;;;16.30;99.90;;;;;;6314208;22;20180;-83
2023/08/13 04:00:34;;;;;;;12.60;7.90;;;16.30;99.90;;;;;;6260868;22;20438;-84
2023/08/13 04:03:03;;;;;;;12.90;7.17;;;16.40;99.90;;;;;;6286287;22;20324;-83
2023/08/13 04:05:50;;;;;;;13.80;6.97;;;16.40;99.90;;;;;;6287341;22;20247;-83
2023/08/13 04:08:17;;;;;;;10.63;6.90;;;16.40;99.90;;;;;;6285845;22;20566;-85
2023/08/13 04:10:45;;;;;;;12.50;7.70;;;16.50;99.90;;;;;;6262459;22;20241;-86
2023/08/13 04:13:15;;;;;;;10.33;7.33;;;16.50;99.90;;;;;;6314286;22;20273;-85
2023/08/13 04:15:58;;;;;;;10.73;7.13;;;16.50;99.90;;;;;;6287173;22;20212;-85
2023/08/13 04:18:39;;;;;;;10.70;7.70;;;16.60;99.90;;;;;;6289964;22;20184;-86
2023/08/13 04:21:26;;;;;;;11.37;7.10;;;16.50;99.90;;;;;;6291711;22;20153;-84
2023/08/13 04:23:56;;;;;;;9.93;7.40;;;16.60;99.90;;;;;;6260780;22;20196;-84
2023/08/13 04:26:24;;;;;;;11.70;7.27;;;16.70;99.90;;;;;;6287181;22;20199;-84
2023/08/13 04:28:53;;;;;;;12.93;7.30;;;16.70;99.90;;;;;;6288230;22;20272;-84
2023/08/13 04:31:20;;;;;;;12.63;7.40;;;16.80;99.90;;;;;;6287496;22;20173;-84
2023/08/13 04:33:48;;;;;;;14.30;7.53;;;17.00;99.90;;;;;;6286671;22;20192;-86
2023/08/13 04:36:16;;;;;;;10.43;7.07;;;17.00;99.90;;;;;;6286831;22;20181;-82
2023/08/13 04:38:43;;;;;;;11.83;6.60;;;17.10;99.90;;;;;;6312298;22;20208;-83
2023/08/13 04:41:10;;;;;;;10.97;7.13;;;17.20;99.90;;;;;;6285770;22;20165;-88
2023/08/13 04:43:37;;;;;;;14.13;7.17;;;17.30;99.90;;;;;;6286111;22;20531;-84
2023/08/13 04:46:05;;;;;;;11.23;6.60;;;17.40;99.90;;;;;;6261639;22;20291;-85
2023/08/13 04:48:46;;;;;;;17.97;7.20;;;17.40;99.90;;;;;;6313276;22;20193;-84
2023/08/13 04:51:16;;;;;;;15.63;7.43;;;17.70;99.90;;;;;;6312466;22;20187;-83
2023/08/13 04:53:46;;;;;;;13.47;7.63;;;17.70;99.90;;;;;;6312095;22;20216;-83
2023/08/13 04:56:13;;;;;;;11.63;6.70;;;17.90;99.90;;;;;;6312598;22;20555;-84
2023/08/13 04:58:43;;;;;;;10.73;6.97;;;17.90;99.90;;;;;;6312160;22;20218;-83
2023/08/13 05:01:10;;;;;;;14.77;7.00;;;18.10;99.90;;;;;;6285395;22;20165;-84
2023/08/13 05:03:39;;;;;;;10.63;6.97;;;18.20;99.90;;;;;;6311147;22;20177;-86
2023/08/13 05:06:07;;;;;;;10.87;6.90;;;18.30;99.90;;;;;;6285245;22;20203;-85
2023/08/13 05:08:34;;;;;;;11.87;6.63;;;18.50;99.90;;;;;;6284823;22;20272;-84
2023/08/13 05:11:07;;;;;;;10.90;6.67;;;18.50;99.90;;;;;;6285714;22;20524;-84
2023/08/13 05:13:34;;;;;;;11.53;7.10;;;18.60;99.90;;;;;;6313739;22;20209;-85
2023/08/13 05:16:02;;;;;;;10.53;6.53;;;18.70;99.90;;;;;;6286466;22;20181;-85
2023/08/13 05:18:29;;;;;;;9.50;6.40;;;18.70;99.90;;;;;;6286964;22;20181;-85
2023/08/13 05:20:56;;;;;;;11.07;6.60;;;18.90;99.90;;;;;;6314025;22;20517;-85
2023/08/13 05:23:24;;;;;;;11.90;6.57;;;19.00;99.90;;;;;;6311809;22;20188;-85
2023/08/13 05:25:51;;;;;;;13.80;7.20;;;19.00;99.90;;;;;;6310692;22;20187;-85
2023/08/13 05:28:19;;;;;;;11.13;6.77;;;19.00;99.90;;;;;;6285187;22;20191;-86
2023/08/13 05:30:46;;;;;;;12.13;6.67;;;19.00;99.90;;;;;;6284986;22;20540;-86
2023/08/13 05:33:13;;;;;;;8.47;6.50;;;18.90;99.90;;;;;;6284840;22;20502;-85
2023/08/13 05:35:40;;;;;;;11.20;6.93;;;19.00;99.90;;;;;;6284972;22;20284;-84
2023/08/13 05:38:08;;;;;;;10.23;6.50;;;18.90;99.90;;;;;;6312045;22;20176;-86
2023/08/13 05:40:35;;;;;;;10.90;6.63;;;18.90;99.90;;;;;;6260833;22;20239;-85
2023/08/13 05:43:02;;;;;;;12.10;6.60;;;19.00;99.90;;;;;;6284527;22;20188;-85
2023/08/13 05:45:29;;;;;;;17.43;7.30;;;19.00;99.90;;;;;;6311874;22;20581;-85
2023/08/13 05:47:56;;;;;;;13.70;7.23;;;19.20;99.90;;;;;;6285253;22;20181;-85
2023/08/13 05:50:24;;;;;;;10.10;6.37;;;19.30;99.90;;;;;;6285428;22;20165;-86
2023/08/13 05:52:51;;;;;;;16.30;7.83;;;19.50;99.90;;;;;;6284933;22;20193;-86
2023/08/13 05:55:18;;;;;;;16.80;7.07;;;19.60;99.90;;;;;;6284707;22;20185;-85
2023/08/13 05:57:45;;;;;;;12.17;6.80;;;19.70;99.90;;;;;;6285150;22;20238;-85
2023/08/13 06:00:13;;;;;;;14.13;7.27;;;19.90;99.90;;;;;;6285133;22;20543;-86
2023/08/13 06:02:40;;;;;;;11.97;7.07;;;20.00;99.90;;;;;;6311450;22;20181;-84
2023/08/13 06:05:08;;;;;;;16.97;7.13;;;20.20;99.90;;;;;;6311807;22;20240;-84
2023/08/13 06:07:36;;;;;;;12.43;6.87;;;20.30;99.90;;;;;;6311931;22;20207;-85
2023/08/13 06:10:07;;;;;;;11.10;7.03;;;20.40;99.90;;;;;;6311903;22;20211;-84
2023/08/13 06:12:34;;;;;;;11.23;6.30;;;20.60;99.90;;;;;;6285551;22;20199;-84
2023/08/13 06:15:02;;;;;;;14.87;7.40;;;20.60;99.90;;;;;;6312378;22;20267;-84
2023/08/13 06:17:29;;;;;;;12.17;6.50;;;20.70;99.90;;;;;;6285856;22;20447;-85
2023/08/13 06:19:57;;;;;;;12.23;6.57;;;20.80;99.90;;;;;;6312695;22;20157;-85
2023/08/13 06:22:25;;;;;;;10.30;6.97;;;20.90;99.90;;;;;;6310959;22;20176;-85
2023/08/13 06:24:55;;;;;;;9.17;6.73;;;21.00;99.90;;;;;;6312279;22;20248;-84
2023/08/13 06:27:22;;;;;;;12.57;6.77;;;21.20;99.90;;;;;;6284471;22;20224;-84
2023/08/13 06:29:49;;;;;;;10.43;6.73;;;21.30;99.90;;;;;;6311491;22;20574;-85
2023/08/13 06:32:36;;;;;;;18.60;7.20;;;21.40;99.90;;;;;;6284739;22;20192;-85
2023/08/13 06:35:03;;;;;;;13.65;7.55;;;21.60;99.90;;;;;;6311421;22;20181;-85
2023/08/13 06:37:30;;;;;;;10.27;6.75;;;21.70;99.90;;;;;;6259503;22;20555;-84
2023/08/13 06:40:00;;;;;;;13.27;7.30;;;21.90;99.90;;;;;;6310261;22;20165;-85
2023/08/13 06:42:27;;;;;;;9.83;6.90;;;22.20;99.90;;;;;;6285080;22;20180;-85
2023/08/13 06:44:55;;;;;;;8.93;6.50;;;22.40;99.90;;;;;;6285561;22;20165;-85
2023/08/13 06:47:22;;;;;;;10.53;7.00;;;22.50;99.90;;;;;;6258715;22;20559;-85
2023/08/13 06:49:49;;;;;;;10.57;6.53;;;22.80;99.90;;;;;;6259718;22;20236;-85
2023/08/13 06:52:17;;;;;;;12.65;7.50;;;23.10;99.90;;;;;;6259635;22;20404;-85
2023/08/13 06:54:53;;;;;;;9.68;6.78;;;23.20;99.90;;;;;;6285635;22;20238;-85
2023/08/13 06:57:21;;;;;;;9.77;6.75;;;23.40;99.90;;;;;;6285326;22;20522;-84
2023/08/13 06:59:48;;;;;;;9.13;6.78;;;23.50;99.90;;;;;;6310155;22;20169;-86
2023/08/13 07:02:15;;;;;;;12.13;7.05;;;23.50;99.90;;;;;;6311835;22;20167;-84
2023/08/13 07:04:43;;;;;;;10.63;7.00;;;23.60;99.90;;;;;;6285600;22;20276;-85
2023/08/13 07:07:10;;;;;;;9.10;6.95;;;23.80;99.90;;;;;;6310861;22;20435;-84
2023/08/13 07:09:37;;;;;;;11.02;6.65;;;23.80;99.90;;;;;;6259088;22;20177;-84
2023/08/13 07:12:08;;;;;;;10.85;6.88;;;23.70;99.90;;;;;;6284651;22;20169;-84
2023/08/13 07:14:35;;;;;;;9.80;6.55;;;23.70;99.90;;;;;;6285226;22;20204;-83
2023/08/13 07:17:03;;;;;;;10.05;7.20;;;23.70;99.90;;;;;;6285216;22;20165;-84
2023/08/13 07:19:31;;;;;;;11.57;6.70;;;23.80;99.90;;;;;;6312551;22;20192;-84
2023/08/13 07:21:58;;;;;;;15.65;7.53;;;23.90;99.90;;;;;;6283185;22;20169;-82
2023/08/13 07:24:25;;;;;;;14.65;7.22;;;24.10;99.90;;;;;;6309245;22;20555;-85
2023/08/13 07:26:52;;;;;;;9.18;6.57;;;24.10;99.90;;;;;;6310525;22;20203;-85
2023/08/13 07:29:20;;;;;;;11.70;7.03;;;24.10;99.90;;;;;;6260131;22;20185;-85
2023/08/13 07:31:47;;;;;;;9.90;6.60;;;24.10;99.90;;;;;;6285841;22;20165;-84
2023/08/13 07:34:15;;;;;;;8.43;6.75;;;24.30;99.90;;;;;;6162951;23;20267;-83
2023/08/13 07:36:42;;;;;;;10.40;7.15;;;24.20;99.90;;;;;;6163165;23;20218;-84
2023/08/13 07:39:10;;;;;;;7.82;6.47;;;24.30;99.90;;;;;;6189123;23;20183;-85
2023/08/13 07:41:37;;;;;;;10.07;6.63;;;24.40;99.90;;;;;;6190036;23;20191;-85
2023/08/13 07:44:05;;;;;;;18.35;8.02;;;24.40;99.90;;;;;;6164834;23;20241;-84
2023/08/13 07:46:32;;;;;;;11.32;7.38;;;24.40;99.90;;;;;;6165166;23;20560;-85
2023/08/13 07:48:59;;;;;;;10.30;6.82;;;24.50;99.90;;;;;;6164006;23;20199;-85
2023/08/13 07:51:27;;;;;;;9.63;6.43;;;24.40;99.90;;;;;;6177725;22;20181;-86
2023/08/13 07:53:54;;;;;;;10.38;6.97;;;24.50;99.90;;;;;;6287544;22;20189;-85
2023/08/13 07:56:21;;;;;;;9.15;6.85;;;24.50;99.90;;;;;;6312618;22;20273;-85
2023/08/13 07:58:48;;;;;;;8.48;6.35;;;24.50;99.90;;;;;;6194022;23;20190;-85
2023/08/13 08:01:17;;;;;;;9.95;6.65;;;24.60;99.90;;;;;;6194616;23;20266;-86
2023/08/13 08:03:44;;;;;;;10.52;6.60;;;24.70;99.90;;;;;;6193312;23;20183;-86
2023/08/13 08:06:14;;;;;;;10.70;6.70;;;24.80;99.90;;;;;;6169286;23;20612;-86
2023/08/13 08:08:41;;;;;;;9.35;6.70;;;24.90;99.90;;;;;;6193679;23;20586;-84
2023/08/13 08:11:09;;;;;;;11.98;7.05;;;24.90;99.90;;;;;;6219757;23;20191;-85
2023/08/13 08:13:36;;;;;;;8.63;6.40;;;25.00;99.90;;;;;;6219524;23;20191;-85
2023/08/13 08:16:03;;;;;;;11.13;6.22;;;25.60;99.90;;;;;;6206255;22;20581;-83
2023/08/13 08:18:31;;;;;;;7.55;6.35;;;26.90;99.90;;;;;;6287062;22;20221;-85
2023/08/13 08:20:58;;;;;;;7.43;5.90;;;27.50;99.90;;;;;;6261750;22;20450;-86
2023/08/13 08:23:25;;;;;;;6.93;6.00;;;28.20;99.90;;;;;;6313265;22;20234;-85
2023/08/13 08:25:53;;;;;;;9.43;6.22;;;28.90;99.90;;;;;;6286887;22;20173;-85
2023/08/13 08:28:20;;;;;;;13.23;6.07;;;29.20;99.90;;;;;;6285875;22;20261;-82
2023/08/13 08:30:47;;;;;;;33.08;8.80;;;29.80;99.90;;;;;;6286265;22;20173;-84
2023/08/13 08:33:14;;;;;;;7.50;5.57;;;29.80;99.90;;;;;;6261432;22;20456;-85
2023/08/13 08:35:42;;;;;;;10.20;5.65;;;30.30;99.90;;;;;;6312980;22;20184;-85
2023/08/13 08:38:09;;;;;;;7.40;5.75;;;30.70;99.90;;;;;;6312073;22;20181;-86
2023/08/13 08:40:36;;;;;;;8.32;5.40;;;30.80;99.90;;;;;;6261749;22;20211;-84
2023/08/13 08:43:04;;;;;;;10.38;5.40;;;31.10;99.90;;;;;;6286045;22;20191;-84
2023/08/13 08:45:32;;;;;;;6.22;4.97;;;31.20;99.90;;;;;;6261432;22;20606;-83
2023/08/13 08:48:00;;;;;;;7.88;5.55;;;31.40;99.90;;;;;;6285979;22;20192;-83
2023/08/13 08:50:28;;;;;;;7.40;5.30;;;31.60;99.90;;;;;;6259571;22;20173;-86
2023/08/13 08:52:57;;;;;;;7.40;5.35;;;31.80;99.90;;;;;;6259839;22;20193;-86
2023/08/13 08:55:24;;;;;;;8.10;5.35;;;31.80;99.90;;;;;;6259823;22;20231;-83
2023/08/13 08:57:54;;;;;;;15.40;6.30;;;32.20;99.90;;;;;;6312074;22;20207;-84
2023/08/13 09:00:23;;;;;;;6.70;5.57;;;32.40;99.90;;;;;;6285679;22;20234;-84
2023/08/13 09:02:50;;;;;;;9.40;5.15;;;32.40;99.90;;;;;;6286613;22;20444;-84
2023/08/13 09:05:20;;;;;;;10.73;5.60;;;32.60;99.90;;;;;;6286107;22;20204;-85
2023/08/13 09:07:48;;;;;;;7.05;4.68;;;32.50;99.90;;;;;;6311633;22;20560;-86
2023/08/13 09:10:15;;;;;;;5.88;4.45;;;32.30;99.90;;;;;;6285773;22;20176;-86
2023/08/13 09:12:43;;;;;;;17.58;6.40;;;32.20;99.90;;;;;;6313219;22;20271;-85
2023/08/13 09:15:11;;;;;;;5.18;4.60;;;32.10;99.90;;;;;;6312591;22;20213;-86
2023/08/13 09:17:39;;;;;;;6.75;4.80;;;32.30;99.90;;;;;;6284619;22;20453;-85
2023/08/13 09:20:17;;;;;;;7.13;4.82;;;32.00;99.90;;;;;;6312269;22;20157;-86
2023/08/13 09:22:48;;;;;;;10.30;6.00;;;32.00;99.90;;;;;;6310584;22;20590;-86
2023/08/13 09:25:16;;;;;;;10.73;5.32;;;31.80;99.50;;;;;;6284729;22;20192;-83
2023/08/13 09:27:44;;;;;;;6.78;5.07;;;32.10;99.80;;;;;;6311947;22;20188;-87
2023/08/13 09:30:19;;;;;;;8.60;5.28;;;32.20;99.10;;;;;;6285238;22;20173;-84
2023/08/13 09:32:47;;;;;;;10.60;5.57;;;32.00;99.30;;;;;;6284720;22;20181;-85
2023/08/13 09:35:15;;;;;;;8.27;5.40;;;31.80;99.10;;;;;;6284361;22;20195;-84
2023/08/13 09:37:42;;;;;;;8.18;5.60;;;31.90;99.80;;;;;;6284410;22;20227;-82
2023/08/13 09:40:10;;;;;;;8.73;5.15;;;32.20;98.70;;;;;;6283818;22;20165;-83
2023/08/13 09:42:39;;;;;;;8.75;5.30;;;32.40;98.40;;;;;;6312831;22;20181;-84
2023/08/13 09:45:10;;;;;;;7.68;5.55;;;32.40;98.00;;;;;;6285598;22;20157;-85
2023/08/13 09:47:43;;;;;;;9.95;5.40;;;32.60;97.80;;;;;;6312953;22;20552;-87
2023/08/13 09:50:12;;;;;;;7.97;5.60;;;32.60;97.30;;;;;;6284613;22;20169;-85
2023/08/13 09:52:44;;;;;;;9.07;5.32;;;32.70;96.70;;;;;;6312230;22;20177;-84
2023/08/13 09:55:13;;;;;;;9.32;5.35;;;32.80;96.30;;;;;;6311767;22;20228;-84
2023/08/13 09:57:42;;;;;;;6.32;5.30;;;32.90;96.50;;;;;;6285515;22;20188;-84
2023/08/13 10:00:11;;;;;;;13.00;5.72;;;32.60;96.40;;;;;;6259947;22;20165;-85
2023/08/13 10:02:42;;;;;;;9.15;5.55;;;32.70;96.20;;;;;;6311802;22;20173;-85
2023/08/13 10:05:11;;;;;;;10.50;5.25;;;32.90;95.70;;;;;;6258858;22;20443;-86
2023/08/13 10:07:40;;;;;;;13.40;5.82;;;33.10;95.80;;;;;;6283750;22;20450;-83
2023/08/13 10:10:08;;;;;;;9.00;5.53;;;33.40;95.60;;;;;;6310869;22;20557;-86
2023/08/13 10:12:36;;;;;;;10.80;5.40;;;33.40;94.90;;;;;;6284597;22;20263;-85
2023/08/13 10:15:04;;;;;;;7.10;5.00;;;33.80;95.30;;;;;;6259255;22;20610;-83
2023/08/13 10:17:32;;;;;;;9.05;5.22;;;34.00;94.80;;;;;;6310451;22;20254;-84
2023/08/13 10:20:00;;;;;;;11.52;5.50;;;34.30;94.10;;;;;;6284815;22;20168;-83
2023/08/13 10:22:38;;;;;;;6.68;5.28;;;34.30;93.00;;;;;;6310309;22;20173;-84
2023/08/13 10:25:07;;;;;;;15.50;5.35;;;33.80;93.00;;;;;;6284851;22;20563;-83
2023/08/13 10:27:37;;;;;;;7.15;4.90;;;34.00;93.30;;;;;;6190859;23;20293;-85
2023/08/13 10:30:12;;;;;;;8.25;4.70;;;33.90;93.50;;;;;;6168175;23;20175;-85
2023/08/13 10:32:59;;;;;;;4.97;4.47;;;34.00;93.50;;;;;;6192529;23;20273;-86
2023/08/13 10:35:34;;;;;;;6.93;4.75;;;33.80;93.20;;;;;;6192526;23;20545;-86
2023/08/13 10:38:04;;;;;;;10.45;5.07;;;34.30;92.30;;;;;;6217137;23;20187;-86
2023/08/13 10:40:31;;;;;;;8.27;4.18;;;34.20;92.50;;;;;;6216417;23;20191;-84
2023/08/13 10:42:59;;;;;;;6.75;4.40;;;34.10;91.70;;;;;;6216004;23;20266;-86
2023/08/13 10:45:35;;;;;;;6.90;4.28;;;34.30;92.10;;;;;;6225934;22;20165;-85
2023/08/13 10:48:08;;;;;;;6.88;4.35;;;35.00;91.20;;;;;;6310851;22;20181;-85
2023/08/13 10:50:42;;;;;;;9.60;4.60;;;34.90;90.20;;;;;;6284450;22;20156;-84
2023/08/13 10:53:19;;;;;;;7.85;4.35;;;35.20;90.10;;;;;;6310501;22;20632;-86
2023/08/13 10:55:50;;;;;;;5.55;4.20;;;35.20;90.50;;;;;;6311055;22;20172;-86
2023/08/13 10:58:28;;;;;;;6.30;3.75;;;35.70;88.90;;;;;;6259197;22;20185;-86
2023/08/13 11:01:22;;;;;;;8.38;4.10;;;35.20;89.10;;;;;;6284317;22;20248;-85
2023/08/13 11:03:54;;;;;;;4.65;3.65;;;35.30;88.20;;;;;;6284289;22;20181;-86
2023/08/13 11:06:24;;;;;;;6.22;4.10;;;34.60;88.80;;;;;;6284944;22;20168;-85
2023/08/13 11:08:51;;;;;;;6.10;4.32;;;34.40;90.50;;;;;;6259235;22;20267;-86
2023/08/13 11:11:19;;;;;;;5.97;4.00;;;35.20;90.80;;;;;;6310693;22;20164;-85
2023/08/13 11:13:47;;;;;;;4.40;3.75;;;35.70;89.70;;;;;;6257925;22;20236;-86
2023/08/13 11:16:16;;;;;;;4.65;3.90;;;35.80;88.20;;;;;;6257879;22;20419;-81
2023/08/13 11:18:44;;;;;;;4.38;3.75;;;35.90;87.40;;;;;;6283321;22;20189;-85
2023/08/13 11:21:11;;;;;;;9.38;4.18;;;35.50;87.80;;;;;;6309190;22;20161;-84
2023/08/13 11:23:38;;;;;;;6.10;3.67;;;35.30;87.50;;;;;;6310396;22;20250;-85
2023/08/13 11:26:07;;;;;;;7.63;4.10;;;35.40;86.90;;;;;;6283314;22;20735;-85
2023/08/13 11:28:35;;;;;;;5.22;3.70;;;35.10;88.50;;;;;;6310298;22;20185;-84
2023/08/13 11:31:02;;;;;;;4.25;3.85;;;34.70;90.00;;;;;;6311660;22;20168;-84
2023/08/13 11:33:29;;;;;;;4.53;4.00;;;35.20;88.30;;;;;;6283644;22;20193;-85
2023/08/13 11:35:58;;;;;;;5.57;4.22;;;34.80;88.40;;;;;;6283265;22;20424;-84
2023/08/13 11:38:28;;;;;;;5.25;4.00;;;35.40;87.10;;;;;;6282615;22;20185;-83
2023/08/13 11:40:55;;;;;;;7.03;3.90;;;35.30;85.80;;;;;;6308872;22;20209;-86
2023/08/13 11:43:28;;;;;;;5.75;4.03;;;35.80;87.00;;;;;;6282750;22;20208;-87
2023/08/13 11:46:00;;;;;;;4.30;3.90;;;36.40;84.80;;;;;;6282493;22;20161;-86
2023/08/13 11:48:31;;;;;;;6.30;3.72;;;36.40;83.40;;;;;;6258347;22;20200;-85
2023/08/13 11:51:15;;;;;;;6.05;3.60;;;36.80;83.70;;;;;;6258005;22;20176;-86
2023/08/13 11:53:48;;;;;;;6.50;3.85;;;37.50;83.20;;;;;;6258423;22;20189;-85
2023/08/13 11:56:17;;;;;;;4.82;3.28;;;37.70;80.20;;;;;;6283124;22;20488;-83
2023/08/13 11:58:44;;;;;;;6.32;3.40;;;37.60;80.80;;;;;;6283453;22;20189;-85
2023/08/13 12:01:13;;;;;;;7.18;3.75;;;36.80;80.60;;;;;;6258417;22;20193;-86
2023/08/13 12:03:43;;;;;;;6.03;3.33;;;36.60;81.50;;;;;;6283585;22;20189;-84
2023/08/13 12:06:11;;;;;;;3.38;3.08;;;36.70;81.70;;;;;;6283404;22;20169;-83
2023/08/13 12:08:44;;;;;;;4.03;2.95;;;36.40;79.20;;;;;;6283935;22;20634;-86
2023/08/13 12:11:12;;;;;;;9.27;3.20;;;35.80;80.20;;;;;;6310398;22;20535;-84
2023/08/13 12:13:42;;;;;;;3.83;3.00;;;35.70;80.90;;;;;;6284138;22;20189;-84
2023/08/13 12:16:10;;;;;;;3.42;3.00;;;35.60;81.70;;;;;;6285964;22;20230;-86
2023/08/13 12:18:37;;;;;;;8.13;3.33;;;35.00;81.60;;;;;;6285380;22;20188;-85
2023/08/13 12:21:05;;;;;;;3.88;3.20;;;35.10;82.80;;;;;;6285050;22;20172;-84
2023/08/13 12:23:33;;;;;;;7.28;3.50;;;34.10;83.60;;;;;;6284895;22;20276;-84
2023/08/13 12:26:01;;;;;;;9.82;3.80;;;33.50;86.40;;;;;;6285109;22;20173;-84
2023/08/13 12:28:29;;;;;;;6.93;3.35;;;33.80;87.00;;;;;;6259726;22;20279;-85
2023/08/13 12:30:56;;;;;;;5.63;3.33;;;34.10;85.50;;;;;;6285247;22;20420;-84
2023/08/13 12:33:24;;;;;;;5.07;3.30;;;34.10;86.40;;;;;;6285683;22;20192;-86
2023/08/13 12:35:51;;;;;;;4.38;3.30;;;34.90;84.60;;;;;;6284835;22;20531;-86
2023/08/13 12:38:18;;;;;;;4.05;3.05;;;34.00;85.00;;;;;;6285058;22;20621;-86
2023/08/13 12:40:45;;;;;;;9.02;3.72;;;34.10;86.60;;;;;;6312313;22;20183;-87
2023/08/13 12:43:12;;;;;;;7.03;3.65;;;33.80;87.20;;;;;;6259344;22;20249;-86
2023/08/13 12:45:39;;;;;;;4.25;3.25;;;34.50;87.00;;;;;;6311086;22;20191;-85
2023/08/13 12:48:06;;;;;;;4.78;3.40;;;34.90;85.80;;;;;;6310952;22;20189;-87